Time;durP1;ratioP1;P1;durP2;ratioP2;P2;SDS_P1;SDS_P2;PMS_P1;PMS_P2;Temp;Humidity;BMP_temperature;BMP_pressure;BME280_temperature;BME280_humidity;BME280_pressure;Samples;Min_cycle;Max_cycle;Signal;HPM_P1;HPM_P2
2024/04/12 05:03:36;;;;;;;;;;;;;;;16.68;60.88;101162.98;1864688;76;20111;-68
2024/04/12 05:06:06;;;;;;;;;;;;;;;16.89;59.48;101158.95;1837175;76;20142;-73
2024/04/12 05:08:35;;;;;;;;;;;;;;;17.12;58.90;101164.05;1800912;78;20278;-70
2024/04/12 05:11:05;;;;;;;;;;;;;;;17.38;58.29;101159.69;1807255;78;20108;-71
2024/04/12 05:13:37;;;;;;;;;;;;;;;17.63;56.70;101159.24;1802729;78;20192;-73
2024/04/12 05:16:11;;;;;;;;;;;;;;;17.84;55.84;101158.30;1812972;78;20131;-73
2024/04/12 05:18:34;;;;;;;;;;;;;;;18.02;54.76;101160.13;1799857;78;20091;-76
2024/04/12 05:21:03;;;;;;;;;;;;;;;18.26;53.30;101161.54;1809916;78;20119;-71
2024/04/12 05:23:29;;;;;;;;;;;;;;;18.45;52.83;101158.43;1801410;79;20396;-76
2024/04/12 05:25:56;;;;;;;;;;;;;;;18.67;51.94;101155.14;1801917;78;20137;-76
2024/04/12 05:28:26;;;;;;;;;;;;;;;18.86;51.18;101149.72;1774775;78;20113;-73
2024/04/12 05:30:54;;;;;;;;;;;;;;;19.04;50.44;101155.94;1807884;78;20119;-74
2024/04/12 05:33:33;;;;;;;;;;;;;;;19.18;49.33;101151.33;1780275;78;20121;-72
2024/04/12 05:36:09;;;;;;;;;;;;;;;19.29;48.89;101152.67;1801819;78;20164;-74
2024/04/12 05:38:34;;;;;;;;;;;;;;;19.44;48.48;101156.45;1791590;79;20108;-73
2024/04/12 05:41:04;;;;;;;;;;;;;;;19.54;48.23;101154.84;1778270;80;20210;-77
2024/04/12 05:43:30;;;;;;;;;;;;;;;19.72;47.79;101158.70;1778040;80;20559;-76
2024/04/12 05:46:00;;;;;;;;;;;;;;;19.88;47.00;101161.02;1767130;80;20123;-71
2024/04/12 05:48:27;;;;;;;;;;;;;;;19.98;46.53;101156.71;1766474;80;20179;-75
2024/04/12 05:50:55;;;;;;;;;;;;;;;20.15;46.19;101159.34;1775944;80;20106;-77
2024/04/12 05:53:24;;;;;;;;;;;;;;;20.36;45.50;101166.09;1786674;80;20147;-76
2024/04/12 05:56:20;;;;;;;;;;;;;;;20.51;44.48;101162.23;1776936;80;20129;-70
2024/04/12 05:58:23;;;;;;;;;;;;;;;20.67;44.01;101165.83;1773879;80;20400;-75
2024/04/12 06:00:50;;;;;;;;;;;;;;;20.80;43.57;101174.44;1777539;80;20112;-73
2024/04/12 06:03:16;;;;;;;;;;;;;;;20.85;43.38;101168.29;1768404;80;20104;-75
2024/04/12 06:05:48;;;;;;;;;;;;;;;20.84;43.05;101159.98;1743992;80;20297;-77
2024/04/12 06:08:16;;;;;;;;;;;;;;;20.77;42.50;101157.50;1762451;80;20110;-70
2024/04/12 06:10:44;;;;;;;;;;;;;;;20.72;42.46;101163.17;1763704;80;20123;-74
2024/04/12 06:13:11;;;;;;;;;;;;;;;20.70;42.28;101153.19;1740197;80;20290;-74
2024/04/12 06:15:37;;;;;;;;;;;;;;;20.72;42.08;101153.91;1767465;80;20389;-70
2024/04/12 06:18:13;;;;;;;;;;;;;;;20.81;41.59;101156.27;1767183;80;20390;-71
2024/04/12 06:20:40;;;;;;;;;;;;;;;20.90;41.29;101150.23;1765655;80;20461;-74
2024/04/12 06:23:14;;;;;;;;;;;;;;;20.98;41.25;101153.09;1767332;80;20136;-76
2024/04/12 06:25:49;;;;;;;;;;;;;;;21.15;40.84;101156.53;1757649;80;20132;-73
2024/04/12 06:28:14;;;;;;;;;;;;;;;21.37;39.91;101155.60;1763851;80;20102;-75
2024/04/12 06:30:48;;;;;;;;;;;;;;;21.48;39.97;101150.25;1766121;80;20477;-74
2024/04/12 06:33:19;;;;;;;;;;;;;;;21.53;39.94;101156.01;1761968;80;20204;-77
2024/04/12 06:35:44;;;;;;;;;;;;;;;21.48;40.26;101150.25;1757332;80;20123;-70
2024/04/12 06:38:14;;;;;;;;;;;;;;;21.37;40.44;101161.39;1752191;80;20132;-71
2024/04/12 06:40:44;;;;;;;;;;;;;;;21.14;41.08;101161.47;1774898;80;20120;-71
2024/04/12 06:43:11;;;;;;;;;;;;;;;20.94;40.84;101155.63;1767644;80;20414;-74
2024/04/12 06:45:41;;;;;;;;;;;;;;;20.80;40.76;101161.20;1759463;80;20390;-70
2024/04/12 06:48:06;;;;;;;;;;;;;;;20.72;40.93;101159.69;1764731;80;20419;-71
2024/04/12 06:50:36;;;;;;;;;;;;;;;20.76;40.99;101158.47;1757864;80;20507;-71
2024/04/12 06:53:08;;;;;;;;;;;;;;;20.86;41.06;101160.22;1773097;80;20502;-69
2024/04/12 06:55:46;;;;;;;;;;;;;;;21.00;41.05;101147.19;1759127;80;20098;-70
2024/04/12 06:58:12;;;;;;;;;;;;;;;21.10;40.62;101152.09;1757686;80;20544;-72
2024/04/12 07:00:38;;;;;;;;;;;;;;;21.19;40.19;101158.45;1762545;80;20116;-75
2024/04/12 07:03:08;;;;;;;;;;;;;;;21.29;40.09;101157.56;1756522;80;20169;-74
2024/04/12 07:05:35;;;;;;;;;;;;;;;21.45;40.09;101165.56;1733497;80;20466;-73
2024/04/12 07:08:05;;;;;;;;;;;;;;;21.66;39.56;101162.90;1757778;80;20273;-75
2024/04/12 07:10:30;;;;;;;;;;;;;;;21.87;37.29;101159.27;1760305;80;20141;-74
2024/04/12 07:12:57;;;;;;;;;;;;;;;22.08;36.72;101158.41;1768861;80;20400;-74
2024/04/12 07:15:23;;;;;;;;;;;;;;;22.17;35.98;101161.12;1795752;79;20127;-71
2024/04/12 07:17:50;;;;;;;;;;;;;;;22.27;36.02;101159.34;1794148;79;20385;-70
2024/04/12 07:20:27;;;;;;;;;;;;;;;22.35;35.34;101158.69;1786407;79;20590;-75
2024/04/12 07:22:51;;;;;;;;;;;;;;;22.30;35.21;101155.59;1784787;79;20129;-73
2024/04/12 07:25:23;;;;;;;;;;;;;;;22.32;35.16;101154.97;1788065;79;20151;-72
2024/04/12 07:27:53;;;;;;;;;;;;;;;22.39;34.42;101155.28;1767454;80;20264;-75
2024/04/12 07:30:20;;;;;;;;;;;;;;;22.48;33.93;101152.63;1753031;80;20098;-74
2024/04/12 07:32:47;;;;;;;;;;;;;;;22.55;33.57;101145.80;1785396;79;20129;-74
2024/04/12 07:35:24;;;;;;;;;;;;;;;22.64;33.68;101150.78;1774418;79;20165;-73
2024/04/12 07:37:54;;;;;;;;;;;;;;;22.73;33.47;101148.64;1793296;79;20107;-74
2024/04/12 07:40:19;;;;;;;;;;;;;;;22.81;33.05;101137.34;1788439;79;20104;-70
2024/04/12 07:42:46;;;;;;;;;;;;;;;22.89;32.53;101132.18;1806645;79;20427;-74
2024/04/12 07:45:17;;;;;;;;;;;;;;;22.99;32.32;101134.36;1807709;79;20162;-72
2024/04/12 07:47:56;;;;;;;;;;;;;;;23.03;32.11;101135.77;1791987;79;20179;-72
2024/04/12 07:50:17;;;;;;;;;;;;;;;23.02;31.73;101127.44;1785546;79;20223;-70
2024/04/12 07:52:44;;;;;;;;;;;;;;;22.98;31.48;101128.70;1790137;79;20156;-71
2024/04/12 07:55:19;;;;;;;;;;;;;;;23.01;31.69;101128.42;1796674;79;20435;-70
2024/04/12 07:57:39;;;;;;;;;;;;;;;23.08;31.71;101132.20;1796629;79;20154;-70
2024/04/12 08:00:09;;;;;;;;;;;;;;;23.18;31.44;101121.09;1789068;79;20396;-73
2024/04/12 08:02:37;;;;;;;;;;;;;;;23.25;30.80;101118.19;1803877;79;20141;-70
2024/04/12 08:05:14;;;;;;;;;;;;;;;23.27;30.69;101109.58;1774544;79;20132;-71
2024/04/12 08:07:38;;;;;;;;;;;;;;;23.27;30.48;101116.72;1777126;79;20113;-72
2024/04/12 08:10:25;;;;;;;;;;;;;;;23.19;30.67;101108.11;1781579;79;20132;-72
2024/04/12 08:12:34;;;;;;;;;;;;;;;23.17;30.82;101111.44;1756622;80;20139;-72
2024/04/12 08:15:06;;;;;;;;;;;;;;;23.15;30.46;101099.27;1766232;80;20141;-72
2024/04/12 08:17:39;;;;;;;;;;;;;;;23.12;30.29;101109.69;1761822;80;20142;-70
2024/04/12 08:20:13;;;;;;;;;;;;;;;23.06;30.83;101104.93;1772672;80;20146;-71
2024/04/12 08:22:36;;;;;;;;;;;;;;;23.12;30.83;101106.19;1764018;80;20277;-71
2024/04/12 08:25:06;;;;;;;;;;;;;;;23.10;30.73;101097.52;1732790;80;20237;-74
2024/04/12 08:27:34;;;;;;;;;;;;;;;23.02;31.06;101092.91;1762630;80;20378;-74
2024/04/12 08:30:13;;;;;;;;;;;;;;;22.98;31.05;101092.00;1769672;80;20132;-73
2024/04/12 08:32:31;;;;;;;;;;;;;;;22.94;31.06;101089.62;1764489;80;20108;-71
2024/04/12 08:34:58;;;;;;;;;;;;;;;22.90;30.66;101080.73;1764635;80;20177;-70
2024/04/12 08:37:36;;;;;;;;;;;;;;;22.82;30.85;101082.76;1764623;80;20382;-73
2024/04/12 08:40:08;;;;;;;;;;;;;;;22.84;31.00;101083.45;1762657;80;20158;-73
2024/04/12 08:42:32;;;;;;;;;;;;;;;22.86;31.11;101083.32;1769145;80;20410;-69
2024/04/12 08:45:26;;;;;;;;;;;;;;;22.84;31.20;101072.00;1730645;80;20130;-71
2024/04/12 08:48:06;;;;;;;;;;;;;;;22.85;31.60;101077.66;1769183;80;20154;-73
2024/04/12 08:51:04;;;;;;;;;;;;;;;22.93;32.01;101064.03;1760859;80;20484;-73
2024/04/12 08:53:22;;;;;;;;;;;;;;;23.02;31.76;101062.84;1757651;80;20108;-69
2024/04/12 08:55:49;;;;;;;;;;;;;;;23.06;31.84;101061.59;1765854;80;20148;-72
2024/04/12 08:58:42;;;;;;;;;;;;;;;23.04;31.67;101052.42;1761695;80;20150;-75
2024/04/12 09:01:07;;;;;;;;;;;;;;;23.04;32.05;101039.64;1765207;80;20120;-69
2024/04/12 09:03:40;;;;;;;;;;;;;;;23.00;32.19;101043.06;1739784;80;20401;-72
2024/04/12 09:06:02;;;;;;;;;;;;;;;22.93;32.41;101037.47;1776954;80;20221;-71
2024/04/12 09:08:29;;;;;;;;;;;;;;;22.93;32.97;101032.65;1745632;80;20175;-72
2024/04/12 09:10:59;;;;;;;;;;;;;;;22.97;32.64;101032.72;1771882;80;20428;-71
2024/04/12 09:13:27;;;;;;;;;;;;;;;23.03;31.99;101027.33;1743060;81;20138;-70
2024/04/12 09:15:54;;;;;;;;;;;;;;;22.98;32.43;101025.59;1674445;83;20471;-69
2024/04/12 09:18:26;;;;;;;;;;;;;;;22.80;32.57;101017.00;1767992;80;20428;-69
2024/04/12 09:20:52;;;;;;;;;;;;;;;22.59;32.92;101021.11;1767270;80;20135;-70
2024/04/12 09:23:32;;;;;;;;;;;;;;;22.34;33.49;101020.83;1777332;80;20947;-69
2024/04/12 09:26:04;;;;;;;;;;;;;;;22.07;33.73;101023.62;1772087;80;20154;-71
2024/04/12 09:28:32;;;;;;;;;;;;;;;21.79;34.14;101027.00;1773951;80;20111;-70
2024/04/12 09:33:50;;;;;;;;;;;;;;;21.26;35.08;101017.41;1774566;80;20135;-71
2024/04/12 09:36:38;;;;;;;;;;;;;;;21.05;35.94;101018.38;1780270;80;20100;-71
2024/04/12 09:38:52;;;;;;;;;;;;;;;20.82;36.80;101018.48;1770791;80;20102;-79
2024/04/12 09:41:32;;;;;;;;;;;;;;;20.67;37.62;101023.74;1770701;80;20120;-76
2024/04/12 09:44:01;;;;;;;;;;;;;;;20.59;37.70;101019.08;1769050;80;20100;-72
2024/04/12 10:37:22;;;;;;;;;;;;;;;20.57;38.29;101022.33;1738136;80;20104;-70
2024/04/12 10:39:13;;;;;;;;;;;;;;;20.02;40.56;100953.22;1766245;80;20109;-72
2024/04/12 10:41:41;;;;;;;;;;;;;;;19.94;40.74;100937.17;1766646;80;20103;-72
2024/04/12 10:44:10;;;;;;;;;;;;;;;19.92;41.08;100939.94;1770222;80;20453;-69
2024/04/12 10:46:38;;;;;;;;;;;;;;;19.92;41.21;100935.97;1763123;80;20114;-75
2024/04/12 10:49:05;;;;;;;;;;;;;;;19.91;41.36;100932.13;1793166;80;20131;-72
2024/04/12 10:51:39;;;;;;;;;;;;;;;19.90;41.55;100928.64;1779364;80;20368;-74
2024/04/12 10:54:04;;;;;;;;;;;;;;;19.92;41.63;100925.39;1769985;80;20113;-72
2024/04/12 10:56:31;;;;;;;;;;;;;;;19.95;41.63;100925.63;1768578;80;20101;-73
2024/04/12 10:59:05;;;;;;;;;;;;;;;19.97;41.79;100925.86;1762028;81;20136;-75
2024/04/12 11:01:38;;;;;;;;;;;;;;;19.96;42.08;100921.54;1762783;80;20099;-73
2024/04/12 11:04:15;;;;;;;;;;;;;;;19.97;42.14;100916.61;1761222;80;20417;-74
2024/04/12 11:06:41;;;;;;;;;;;;;;;19.97;42.12;100919.25;1761170;80;20165;-71
2024/04/12 11:09:13;;;;;;;;;;;;;;;19.97;41.92;100917.09;1769546;80;20109;-71
2024/04/12 11:11:43;;;;;;;;;;;;;;;19.98;42.48;100905.07;1758333;80;20099;-69
2024/04/12 11:14:17;;;;;;;;;;;;;;;20.02;42.11;100907.44;1754023;80;20418;-73
2024/04/12 11:31:07;;;;;;;;;;;;;;;20.01;42.17;100885.92;1761234;80;20108;-72
2024/04/12 11:33:39;;;;;;;;;;;;;;;20.02;42.68;100878.36;1758682;80;20983;-70
2024/04/12 11:36:10;;;;;;;;;;;;;;;20.06;43.07;100870.53;1754716;80;20178;-74
2024/04/12 11:38:39;;;;;;;;;;;;;;;20.11;43.05;100869.19;1740954;80;20402;-73
2024/04/12 11:41:06;;;;;;;;;;;;;;;20.18;43.12;100862.43;1753326;80;20142;-71
2024/04/12 11:43:33;;;;;;;;;;;;;;;20.24;42.94;100854.47;1767411;80;20459;-76
2024/04/12 11:46:03;;;;;;;;;;;;;;;20.28;42.61;100854.09;1729026;82;20440;-72
2024/04/12 11:48:31;;;;;;;;;;;;;;;20.31;43.24;100844.58;1753877;80;20146;-69
2024/04/12 11:50:59;;;;;;;;;;;;;;;20.33;43.07;100848.90;1755161;80;20144;-70
2024/04/12 11:53:25;;;;;;;;;;;;;;;20.35;43.04;100857.55;1752203;80;20110;-73
2024/04/12 11:55:55;;;;;;;;;;;;;;;20.34;42.88;100845.29;1755544;80;20127;-69
2024/04/12 11:58:22;;;;;;;;;;;;;;;20.29;43.02;100849.16;1762445;80;20133;-67
2024/04/12 12:00:48;;;;;;;;;;;;;;;20.25;43.21;100851.70;1764426;80;20467;-72
2024/04/12 12:03:19;;;;;;;;;;;;;;;20.23;43.00;100840.41;1752572;81;20130;-68
2024/04/12 12:05:53;;;;;;;;;;;;;;;20.23;43.82;100839.57;1723040;81;20105;-69
2024/04/12 12:08:31;;;;;;;;;;;;;;;20.23;43.88;100833.80;1748824;81;20525;-70
2024/04/12 12:10:51;;;;;;;;;;;;;;;20.23;43.91;100835.61;1745216;81;20131;-71
2024/04/12 12:13:21;;;;;;;;;;;;;;;20.22;44.18;100827.31;1765835;81;20113;-72
2024/04/12 12:15:52;;;;;;;;;;;;;;;20.19;43.83;100823.12;1719688;82;20380;-72
2024/04/12 12:18:23;;;;;;;;;;;;;;;20.17;43.80;100820.25;1757621;81;20468;-73
2024/04/12 12:20:49;;;;;;;;;;;;;;;20.14;43.80;100819.17;1762354;81;20099;-70
2024/04/12 12:23:19;;;;;;;;;;;;;;;20.11;43.45;100820.75;1719052;81;20109;-72
2024/04/12 12:25:47;;;;;;;;;;;;;;;20.07;43.95;100811.39;1745666;81;20111;-70
2024/04/12 12:28:13;;;;;;;;;;;;;;;20.03;43.91;100813.45;1745800;81;20085;-71
2024/04/12 12:30:47;;;;;;;;;;;;;;;19.98;44.28;100809.06;1759103;81;20128;-73
2024/04/12 12:33:11;;;;;;;;;;;;;;;19.93;43.57;100805.48;1724025;82;20129;-73
2024/04/12 12:35:37;;;;;;;;;;;;;;;19.89;43.12;100802.73;1746123;81;20097;-68
2024/04/12 12:38:04;;;;;;;;;;;;;;;19.85;43.80;100808.39;1748878;81;20421;-70
2024/04/12 12:40:31;;;;;;;;;;;;;;;19.82;43.87;100804.20;1754950;81;20442;-72
2024/04/12 12:42:57;;;;;;;;;;;;;;;19.80;44.02;100798.68;1754099;81;20178;-70
2024/04/12 12:45:27;;;;;;;;;;;;;;;19.78;43.97;100795.32;1753315;81;20136;-70
2024/04/12 12:47:59;;;;;;;;;;;;;;;19.76;44.06;100802.53;1757746;81;20194;-75
2024/04/12 12:50:29;;;;;;;;;;;;;;;19.73;43.98;100797.02;1750532;81;20091;-74
2024/04/12 12:53:09;;;;;;;;;;;;;;;19.71;44.53;100800.27;1750579;81;20120;-73
2024/04/12 12:55:42;;;;;;;;;;;;;;;19.70;45.09;100790.66;1746257;82;20098;-70
2024/04/12 12:58:11;;;;;;;;;;;;;;;19.71;45.70;100791.50;1755942;81;20213;-71
2024/04/12 13:00:44;;;;;;;;;;;;;;;19.70;45.65;100786.70;1749824;81;20099;-69
2024/04/12 13:03:12;;;;;;;;;;;;;;;19.71;45.30;100786.22;1752379;81;20085;-72
2024/04/12 13:05:39;;;;;;;;;;;;;;;19.69;45.41;100790.30;1778147;79;20136;-71
2024/04/12 13:08:13;;;;;;;;;;;;;;;19.65;46.05;100787.08;1754570;81;20096;-73
2024/04/12 13:10:39;;;;;;;;;;;;;;;19.64;46.19;100780.59;1773042;80;20092;-69
2024/04/12 13:13:06;;;;;;;;;;;;;;;19.64;46.06;100784.55;1774334;80;20142;-67
2024/04/12 13:15:32;;;;;;;;;;;;;;;19.63;46.20;100777.59;1786752;80;20092;-70
2024/04/12 13:17:59;;;;;;;;;;;;;;;19.63;46.42;100780.23;1768260;80;20109;-71
2024/04/12 13:20:25;;;;;;;;;;;;;;;19.64;46.43;100783.23;1762020;81;20103;-69
2024/04/12 13:22:52;;;;;;;;;;;;;;;19.63;45.53;100774.47;1770778;80;20156;-72
2024/04/12 13:25:19;;;;;;;;;;;;;;;19.61;45.66;100781.68;1769443;80;20117;-75
2024/04/12 13:27:49;;;;;;;;;;;;;;;19.58;45.73;100763.95;1771020;80;20126;-69
2024/04/12 13:30:15;;;;;;;;;;;;;;;19.54;45.39;100769.13;1767238;80;20169;-70
2024/04/12 13:32:42;;;;;;;;;;;;;;;19.48;45.50;100765.63;1768902;80;20104;-70
2024/04/12 13:35:12;;;;;;;;;;;;;;;19.44;46.18;100756.28;1768395;80;20130;-71
2024/04/12 13:37:52;;;;;;;;;;;;;;;19.41;46.21;100761.33;1764198;80;20172;-74
2024/04/12 13:40:25;;;;;;;;;;;;;;;19.39;46.25;100764.57;1714661;83;20434;-74
2024/04/12 13:42:51;;;;;;;;;;;;;;;19.40;46.47;100761.45;1708684;83;20498;-70
2024/04/12 13:50:58;;;;;;;;;;;;;;;19.39;46.57;100754.01;1710747;83;20177;-70
2024/04/12 13:53:32;;;;;;;;;;;;;;;19.39;46.93;100750.05;1720963;83;20388;-70
2024/04/12 13:56:20;;;;;;;;;;;;;;;19.40;46.59;100754.84;1718641;83;20396;-72
